createdAt,value
2022-10-15T00:00:43.356Z,13.71
2022-10-15T00:01:43.399Z,13.71
2022-10-15T00:02:43.343Z,13.70
2022-10-15T00:03:43.346Z,13.70
2022-10-15T00:04:43.313Z,13.70
2022-10-15T00:05:43.305Z,13.70
2022-10-15T00:06:43.296Z,13.69
2022-10-15T00:07:43.294Z,13.69
2022-10-15T00:08:43.299Z,13.69
2022-10-15T00:09:43.252Z,13.68
2022-10-15T00:10:43.247Z,13.68
2022-10-15T00:11:43.235Z,13.68
2022-10-15T00:12:43.240Z,13.68
2022-10-15T00:13:43.240Z,13.67
2022-10-15T00:14:43.193Z,13.67
2022-10-15T00:15:43.189Z,13.66
2022-10-15T00:16:43.187Z,13.66
2022-10-15T00:17:43.181Z,13.66
2022-10-15T00:18:43.170Z,13.65
2022-10-15T00:19:43.150Z,13.65
2022-10-15T00:20:43.126Z,13.65
2022-10-15T00:21:43.114Z,13.64
2022-10-15T00:22:43.098Z,13.64
2022-10-15T00:23:43.105Z,13.64
2022-10-15T00:24:43.087Z,13.64
2022-10-15T00:25:43.065Z,13.64
2022-10-15T00:26:43.065Z,13.64
2022-10-15T00:27:43.046Z,13.63
2022-10-15T00:28:43.067Z,13.63
2022-10-15T00:29:43.024Z,13.63
2022-10-15T00:30:43.007Z,13.62
2022-10-15T00:31:43.003Z,13.62
2022-10-15T00:32:42.985Z,13.62
2022-10-15T00:33:43.003Z,13.61
2022-10-15T00:34:42.959Z,13.61
2022-10-15T00:35:42.949Z,13.61
2022-10-15T00:36:42.941Z,13.60
2022-10-15T00:37:42.929Z,13.60
2022-10-15T00:38:42.931Z,13.60
2022-10-15T00:39:42.903Z,13.59
2022-10-15T00:40:42.888Z,13.59
2022-10-15T00:41:42.888Z,13.59
2022-10-15T00:42:42.869Z,13.58
2022-10-15T00:43:42.868Z,13.58
2022-10-15T00:44:42.849Z,13.57
2022-10-15T00:45:42.830Z,13.56
2022-10-15T00:46:42.820Z,13.56
2022-10-15T00:47:42.809Z,13.56
2022-10-15T00:48:42.795Z,13.56
2022-10-15T00:49:42.811Z,13.55
2022-10-15T00:50:42.769Z,13.55
2022-10-15T00:51:42.768Z,13.55
2022-10-15T00:52:42.751Z,13.55
2022-10-15T00:53:42.782Z,13.55
2022-10-15T00:54:42.727Z,13.55
2022-10-15T00:55:42.731Z,13.55
2022-10-15T00:56:42.712Z,13.54
2022-10-15T00:57:42.698Z,13.54
2022-10-15T00:58:42.693Z,13.54
2022-10-15T00:59:42.674Z,13.53
2022-10-15T01:00:42.654Z,13.53
2022-10-15T01:01:42.662Z,13.53
2022-10-15T01:02:42.636Z,13.53
2022-10-15T01:03:42.629Z,13.53
2022-10-15T01:04:42.631Z,13.53
2022-10-15T01:05:42.601Z,13.52
2022-10-15T01:06:42.595Z,13.52
2022-10-15T01:07:42.589Z,13.52
2022-10-15T01:08:42.582Z,13.52
2022-10-15T01:09:42.553Z,13.52
2022-10-15T01:10:42.542Z,13.52
2022-10-15T01:11:42.543Z,13.52
2022-10-15T01:12:42.518Z,13.52
2022-10-15T01:13:42.532Z,13.51
2022-10-15T01:14:42.493Z,13.51
2022-10-15T01:15:42.489Z,13.51
2022-10-15T01:16:42.485Z,13.51
2022-10-15T01:17:42.462Z,13.50
2022-10-15T01:18:42.452Z,13.50
2022-10-15T01:19:42.455Z,13.50
2022-10-15T01:20:42.431Z,13.50
2022-10-15T01:21:42.418Z,13.50
2022-10-15T01:22:42.404Z,13.49
2022-10-15T01:23:42.414Z,13.49
2022-10-15T01:24:42.383Z,13.49
2022-10-15T01:25:42.375Z,13.48
2022-10-15T01:26:42.366Z,13.47
2022-10-15T01:27:42.351Z,13.47
2022-10-15T01:28:42.368Z,13.46
2022-10-15T01:29:42.325Z,13.46
2022-10-15T01:30:42.311Z,13.46
2022-10-15T01:31:42.312Z,13.45
2022-10-15T01:32:42.286Z,13.45
2022-10-15T01:33:42.297Z,13.45
2022-10-15T01:34:42.267Z,13.45
2022-10-15T01:35:42.256Z,13.45
2022-10-15T01:36:42.249Z,13.45
2022-10-15T01:37:42.238Z,13.45
2022-10-15T01:38:42.237Z,13.45
2022-10-15T01:39:42.215Z,13.45
2022-10-15T01:40:42.195Z,13.45
2022-10-15T01:41:42.195Z,13.45
2022-10-15T01:42:42.177Z,13.45
2022-10-15T01:43:42.179Z,13.45
2022-10-15T01:44:42.160Z,13.45
2022-10-15T01:45:42.139Z,13.45
2022-10-15T01:46:42.137Z,13.46
2022-10-15T01:47:42.122Z,13.46
2022-10-15T01:48:42.119Z,13.46
2022-10-15T01:49:42.089Z,13.46
2022-10-15T01:50:42.084Z,13.46
2022-10-15T01:51:42.080Z,13.46
2022-10-15T01:52:42.073Z,13.46
2022-10-15T01:53:42.051Z,13.46
2022-10-15T01:54:42.059Z,13.46
2022-10-15T01:55:42.017Z,13.46
2022-10-15T01:56:42.008Z,13.46
2022-10-15T01:57:41.998Z,13.46
2022-10-15T01:58:42.012Z,13.46
2022-10-15T01:59:41.979Z,13.46
2022-10-15T02:00:42.001Z,13.46
2022-10-15T02:02:41.946Z,13.46
2022-10-15T02:03:41.954Z,13.46
2022-10-15T02:04:41.914Z,13.46
2022-10-15T02:05:41.901Z,13.46
2022-10-15T02:06:41.902Z,13.46
2022-10-15T02:07:41.879Z,13.47
2022-10-15T02:08:41.877Z,13.47
2022-10-15T02:09:41.884Z,13.47
2022-10-15T02:10:41.921Z,13.46
2022-10-15T02:11:41.830Z,13.46
2022-10-15T02:12:41.834Z,13.46
2022-10-15T02:13:41.836Z,13.46
2022-10-15T02:14:41.804Z,13.46
2022-10-15T02:15:41.791Z,13.46
2022-10-15T02:16:41.783Z,13.46
2022-10-15T02:17:41.762Z,13.46
2022-10-15T02:18:41.776Z,13.46
2022-10-15T02:19:41.740Z,13.46
2022-10-15T02:20:41.733Z,13.46
2022-10-15T02:21:41.715Z,13.46
2022-10-15T02:22:41.701Z,13.45
2022-10-15T02:23:41.693Z,13.45
2022-10-15T02:24:41.691Z,13.45
2022-10-15T02:25:41.673Z,13.45
2022-10-15T02:26:41.669Z,13.45
2022-10-15T02:27:41.645Z,13.44
2022-10-15T02:28:41.697Z,13.44
2022-10-15T02:29:41.621Z,13.44
2022-10-15T02:30:41.618Z,13.44
2022-10-15T02:31:41.609Z,13.44
2022-10-15T02:32:41.592Z,13.43
2022-10-15T02:33:41.594Z,13.43
2022-10-15T02:34:41.570Z,13.43
2022-10-15T02:35:41.554Z,13.43
2022-10-15T02:36:41.545Z,13.42
2022-10-15T02:37:41.515Z,13.42
2022-10-15T02:38:41.536Z,13.42
2022-10-15T02:39:41.503Z,13.42
2022-10-15T02:40:41.494Z,13.42
2022-10-15T02:41:41.482Z,13.42
2022-10-15T02:42:41.473Z,13.42
2022-10-15T02:43:41.470Z,13.41
2022-10-15T02:44:41.444Z,13.41
2022-10-15T02:45:41.436Z,13.41
2022-10-15T02:46:41.427Z,13.41
2022-10-15T02:47:41.404Z,13.41
2022-10-15T02:48:41.416Z,13.40
2022-10-15T02:49:41.389Z,13.40
2022-10-15T02:50:41.372Z,13.40
2022-10-15T02:51:41.379Z,13.40
2022-10-15T02:52:41.348Z,13.40
2022-10-15T02:53:41.355Z,13.40
2022-10-15T02:54:41.329Z,13.40
2022-10-15T02:55:41.306Z,13.39
2022-10-15T02:56:41.314Z,13.39
2022-10-15T02:57:41.289Z,13.39
2022-10-15T02:58:41.307Z,13.39
2022-10-15T02:59:41.265Z,13.39
2022-10-15T03:00:41.295Z,13.39
2022-10-15T03:01:41.253Z,13.38
2022-10-15T03:02:41.247Z,13.38
2022-10-15T03:03:41.237Z,13.38
2022-10-15T03:04:41.210Z,13.37
2022-10-15T03:05:41.195Z,13.37
2022-10-15T03:06:41.198Z,13.36
2022-10-15T03:07:41.177Z,13.36
2022-10-15T03:08:41.171Z,13.36
2022-10-15T03:09:41.168Z,13.35
2022-10-15T03:10:41.137Z,13.35
2022-10-15T03:11:41.132Z,13.34
2022-10-15T03:12:41.121Z,13.34
2022-10-15T03:13:41.122Z,13.34
2022-10-15T03:14:41.105Z,13.34
2022-10-15T03:15:41.078Z,13.33
2022-10-15T03:16:41.081Z,13.33
2022-10-15T03:17:41.058Z,13.32
2022-10-15T03:18:41.122Z,13.32
2022-10-15T03:19:41.054Z,13.31
2022-10-15T03:20:41.022Z,13.31
2022-10-15T03:21:41.009Z,13.30
2022-10-15T03:22:40.999Z,13.30
2022-10-15T03:23:40.991Z,13.30
2022-10-15T03:24:40.998Z,13.29
2022-10-15T03:25:40.983Z,13.29
2022-10-15T03:26:40.961Z,13.29
2022-10-15T03:27:40.942Z,13.29
2022-10-15T03:28:41.016Z,13.29
2022-10-15T03:29:40.912Z,13.29
2022-10-15T03:30:40.914Z,13.29
2022-10-15T03:31:40.898Z,13.28
2022-10-15T03:32:40.916Z,13.28
2022-10-15T03:33:40.886Z,13.29
2022-10-15T03:34:40.860Z,13.28
2022-10-15T03:35:40.849Z,13.28
2022-10-15T03:36:40.846Z,13.28
2022-10-15T03:37:40.820Z,13.28
2022-10-15T03:38:40.810Z,13.28
2022-10-15T03:39:40.824Z,13.28
2022-10-15T03:40:40.795Z,13.28
2022-10-15T03:41:40.828Z,13.28
2022-10-15T03:42:40.781Z,13.28
2022-10-15T03:43:42.884Z,13.27
2022-10-15T03:44:40.747Z,13.27
2022-10-15T03:45:40.734Z,13.27
2022-10-15T03:46:40.713Z,13.27
2022-10-15T03:47:40.705Z,13.26
2022-10-15T03:48:40.713Z,13.26
2022-10-15T03:49:40.675Z,13.26
2022-10-15T03:50:40.705Z,13.26
2022-10-15T03:51:40.661Z,13.25
2022-10-15T03:52:40.655Z,13.25
2022-10-15T03:53:40.651Z,13.25
2022-10-15T03:54:40.636Z,13.24
2022-10-15T03:55:40.603Z,13.24
2022-10-15T03:56:40.612Z,13.24
2022-10-15T03:57:40.586Z,13.23
2022-10-15T03:58:40.595Z,13.23
2022-10-15T03:59:40.579Z,13.23
2022-10-15T04:00:40.649Z,13.22
2022-10-15T04:01:40.543Z,13.22
2022-10-15T04:02:40.534Z,13.21
2022-10-15T04:03:40.522Z,13.21
2022-10-15T04:04:40.518Z,13.21
2022-10-15T04:05:40.491Z,13.20
2022-10-15T04:06:40.494Z,13.20
2022-10-15T04:07:40.472Z,13.19
2022-10-15T04:08:40.574Z,13.19
2022-10-15T04:09:40.456Z,13.19
2022-10-15T04:10:40.436Z,13.19
2022-10-15T04:11:40.430Z,13.19
2022-10-15T04:12:40.422Z,13.18
2022-10-15T04:13:40.428Z,13.18
2022-10-15T04:14:40.402Z,13.18
2022-10-15T04:15:40.390Z,13.18
2022-10-15T04:16:40.370Z,13.18
2022-10-15T04:17:40.399Z,13.17
2022-10-15T04:18:40.350Z,13.17
2022-10-15T04:19:40.353Z,13.17
2022-10-15T04:20:40.316Z,13.16
2022-10-15T04:21:40.320Z,13.16
2022-10-15T04:22:40.302Z,13.16
2022-10-15T04:23:40.299Z,13.16
2022-10-15T04:24:40.269Z,13.16
2022-10-15T04:25:40.278Z,13.16
2022-10-15T04:26:40.265Z,13.16
2022-10-15T04:27:40.245Z,13.15
2022-10-15T04:28:40.294Z,13.16
2022-10-15T04:29:40.215Z,13.15
2022-10-15T04:30:40.205Z,13.15
2022-10-15T04:31:40.191Z,13.15
2022-10-15T04:32:40.185Z,13.15
2022-10-15T04:33:40.195Z,13.15
2022-10-15T04:34:40.161Z,13.15
2022-10-15T04:35:40.145Z,13.15
2022-10-15T04:36:40.140Z,13.16
2022-10-15T04:37:40.137Z,13.16
2022-10-15T04:38:40.111Z,13.15
2022-10-15T04:39:40.135Z,13.16
2022-10-15T04:40:40.089Z,13.16
2022-10-15T04:41:40.080Z,13.16
2022-10-15T04:42:40.072Z,13.16
2022-10-15T04:43:40.063Z,13.16
2022-10-15T04:44:40.041Z,13.16
2022-10-15T04:45:40.066Z,13.16
2022-10-15T04:46:40.091Z,13.16
2022-10-15T04:47:40.045Z,13.16
2022-10-15T04:48:42.934Z,13.16
2022-10-15T04:49:39.986Z,13.16
2022-10-15T04:50:40.010Z,13.16
2022-10-15T04:51:39.989Z,13.16
2022-10-15T04:52:39.976Z,13.16
2022-10-15T04:53:39.956Z,13.16
2022-10-15T04:54:39.938Z,13.15
2022-10-15T04:55:39.918Z,13.15
2022-10-15T04:56:39.951Z,13.15
2022-10-15T04:57:39.894Z,13.15
2022-10-15T04:58:39.874Z,13.14
2022-10-15T04:59:39.862Z,13.14
2022-10-15T05:00:39.853Z,13.14
2022-10-15T05:01:39.853Z,13.13
2022-10-15T05:02:39.898Z,13.13
2022-10-15T05:03:42.450Z,13.12
2022-10-15T05:04:40.816Z,13.12
2022-10-15T05:05:39.795Z,13.12
2022-10-15T05:06:39.810Z,13.12
2022-10-15T05:07:39.774Z,13.11
2022-10-15T05:08:39.762Z,13.11
2022-10-15T05:09:43.990Z,13.10
2022-10-15T05:10:40.746Z,13.10
2022-10-15T05:11:39.723Z,13.09
2022-10-15T05:12:39.787Z,13.09
2022-10-15T05:13:39.712Z,13.09
2022-10-15T05:14:39.724Z,13.08
2022-10-15T05:15:39.687Z,13.08
2022-10-15T05:16:39.670Z,13.08
2022-10-15T05:17:39.675Z,13.08
2022-10-15T05:18:39.659Z,13.08
2022-10-15T05:19:39.640Z,13.07
2022-10-15T05:20:39.625Z,13.07
2022-10-15T05:21:39.655Z,13.07
2022-10-15T05:22:39.599Z,13.07
2022-10-15T05:23:39.595Z,13.07
2022-10-15T05:24:39.578Z,13.07
2022-10-15T05:25:39.565Z,13.07
2022-10-15T05:26:39.563Z,13.07
2022-10-15T05:27:39.539Z,13.07
2022-10-15T05:28:39.600Z,13.07
2022-10-15T05:29:39.515Z,13.07
2022-10-15T05:30:39.515Z,13.07
2022-10-15T05:31:39.501Z,13.07
2022-10-15T05:32:39.496Z,13.07
2022-10-15T05:33:39.485Z,13.07
2022-10-15T05:34:39.467Z,13.06
2022-10-15T05:35:39.448Z,13.06
2022-10-15T05:36:39.442Z,13.06
2022-10-15T05:37:39.426Z,13.06
2022-10-15T05:38:39.450Z,13.06
2022-10-15T05:39:39.398Z,13.06
2022-10-15T05:40:39.402Z,13.05
2022-10-15T05:41:39.379Z,13.05
2022-10-15T05:42:39.379Z,13.04
2022-10-15T05:43:41.338Z,13.03
2022-10-15T05:44:39.361Z,13.02
2022-10-15T05:45:39.341Z,13.01
2022-10-15T05:46:39.322Z,13.01
2022-10-15T05:47:39.314Z,13.00
2022-10-15T05:48:39.299Z,13.00
2022-10-15T05:49:39.298Z,12.99
2022-10-15T05:50:39.280Z,12.98
2022-10-15T05:51:39.274Z,12.97
2022-10-15T05:52:39.263Z,12.96
2022-10-15T05:53:39.239Z,12.94
2022-10-15T05:54:39.257Z,12.93
2022-10-15T05:55:39.217Z,12.91
2022-10-15T05:56:39.221Z,12.90
2022-10-15T05:57:39.205Z,12.89
2022-10-15T05:58:39.179Z,12.88
2022-10-15T05:59:39.173Z,12.86
2022-10-15T06:00:39.172Z,12.86
2022-10-15T06:01:39.181Z,12.85
2022-10-15T06:02:39.304Z,12.84
2022-10-15T06:03:39.131Z,12.84
2022-10-15T06:04:39.111Z,12.84
2022-10-15T06:05:39.123Z,12.83
2022-10-15T06:06:39.098Z,12.83
2022-10-15T06:07:39.090Z,12.82
2022-10-15T06:08:39.062Z,12.82
2022-10-15T06:09:39.051Z,12.82
2022-10-15T06:10:39.036Z,12.82
2022-10-15T06:11:39.054Z,12.83
2022-10-15T06:12:39.025Z,12.83
2022-10-15T06:13:39.017Z,12.83
2022-10-15T06:14:39.003Z,12.83
2022-10-15T06:15:39.004Z,12.83
2022-10-15T06:16:38.997Z,12.84
2022-10-15T06:17:38.960Z,12.84
2022-10-15T06:18:38.950Z,12.84
2022-10-15T06:19:38.943Z,12.85
2022-10-15T06:20:38.933Z,12.85
2022-10-15T06:21:38.936Z,12.86
2022-10-15T06:22:38.906Z,12.86
2022-10-15T06:23:38.892Z,12.87
2022-10-15T06:24:38.879Z,12.87
2022-10-15T06:25:38.872Z,12.88
2022-10-15T06:26:38.869Z,12.88
2022-10-15T06:27:38.846Z,12.89
2022-10-15T06:28:38.861Z,12.89
2022-10-15T06:29:38.826Z,12.90
2022-10-15T06:30:38.807Z,12.90
2022-10-15T06:31:38.814Z,12.90
2022-10-15T06:32:38.785Z,12.90
2022-10-15T06:33:38.780Z,12.90
2022-10-15T06:34:38.760Z,12.90
2022-10-15T06:35:38.749Z,12.90
2022-10-15T06:36:38.734Z,12.90
2022-10-15T06:37:38.742Z,12.90
2022-10-15T06:38:38.711Z,12.89
2022-10-15T06:39:38.705Z,12.89
2022-10-15T06:40:38.689Z,12.89
2022-10-15T06:41:38.681Z,12.88
2022-10-15T06:42:38.688Z,12.88
2022-10-15T06:43:38.729Z,12.88
2022-10-15T06:44:38.638Z,12.88
2022-10-15T06:45:38.639Z,12.88
2022-10-15T06:46:38.606Z,12.88
2022-10-15T06:47:38.629Z,12.88
2022-10-15T06:48:38.598Z,12.89
2022-10-15T06:49:38.586Z,12.90
2022-10-15T06:50:38.577Z,12.91
2022-10-15T06:51:38.563Z,12.92
2022-10-15T06:52:38.576Z,12.93
2022-10-15T06:53:38.547Z,12.95
2022-10-15T06:54:38.528Z,12.96
2022-10-15T06:55:38.512Z,12.98
2022-10-15T06:56:38.507Z,13.01
2022-10-15T06:57:38.490Z,13.03
2022-10-15T06:58:38.500Z,13.05
2022-10-15T06:59:41.225Z,13.06
2022-10-15T07:00:38.469Z,13.08
2022-10-15T07:01:41.393Z,13.10
2022-10-15T07:02:38.433Z,13.12
2022-10-15T07:03:38.432Z,13.14
2022-10-15T07:04:38.409Z,13.16
2022-10-15T07:05:38.400Z,13.18
2022-10-15T07:06:38.387Z,13.20
2022-10-15T07:07:38.374Z,13.23
2022-10-15T07:08:38.379Z,13.25
2022-10-15T07:09:38.360Z,13.27
2022-10-15T07:10:38.331Z,13.29
2022-10-15T07:11:38.328Z,13.31
2022-10-15T07:12:38.319Z,13.33
2022-10-15T07:13:38.302Z,13.35
2022-10-15T07:14:41.539Z,13.37
2022-10-15T07:15:38.281Z,13.38
2022-10-15T07:16:38.270Z,13.40
2022-10-15T07:17:38.264Z,13.42
2022-10-15T07:18:38.261Z,13.45
2022-10-15T07:19:38.244Z,13.48
2022-10-15T07:20:38.220Z,13.50
2022-10-15T07:21:38.211Z,13.53
2022-10-15T07:22:38.211Z,13.56
2022-10-15T07:23:38.216Z,13.59
2022-10-15T07:24:38.182Z,13.61
2022-10-15T07:25:38.170Z,13.64
2022-10-15T07:26:38.160Z,13.66
2022-10-15T07:27:38.150Z,13.69
2022-10-15T07:28:38.218Z,13.70
2022-10-15T07:29:38.136Z,13.72
2022-10-15T07:30:38.112Z,13.74
2022-10-15T07:31:38.177Z,13.75
2022-10-15T07:32:38.083Z,13.77
2022-10-15T07:33:38.075Z,13.78
2022-10-15T07:34:38.072Z,13.79
2022-10-15T07:35:38.058Z,13.80
2022-10-15T07:36:38.043Z,13.82
2022-10-15T07:37:38.044Z,13.82
2022-10-15T07:38:38.023Z,13.83
2022-10-15T07:39:40.906Z,13.84
2022-10-15T07:40:38.010Z,13.85
2022-10-15T07:41:37.994Z,13.86
2022-10-15T07:42:37.963Z,13.87
2022-10-15T07:43:37.972Z,13.88
2022-10-15T07:44:37.945Z,13.89
2022-10-15T07:45:37.981Z,13.90
2022-10-15T07:46:37.940Z,13.91
2022-10-15T07:47:37.923Z,13.92
2022-10-15T07:48:37.895Z,13.93
2022-10-15T07:49:37.916Z,13.94
2022-10-15T07:50:40.310Z,13.95
2022-10-15T07:51:37.907Z,13.95
2022-10-15T07:52:37.852Z,13.96
2022-10-15T07:53:37.847Z,13.97
2022-10-15T07:54:37.832Z,13.98
2022-10-15T07:55:37.820Z,13.99
2022-10-15T07:56:37.808Z,14.00
2022-10-15T07:57:37.813Z,14.02
2022-10-15T07:58:37.801Z,14.04
2022-10-15T07:59:37.775Z,14.05
2022-10-15T08:00:37.757Z,14.07
2022-10-15T08:01:37.744Z,14.08
2022-10-15T08:02:37.740Z,14.09
2022-10-15T08:03:37.748Z,14.10
2022-10-15T08:04:37.718Z,14.10
2022-10-15T08:05:37.704Z,14.11
2022-10-15T08:06:37.697Z,14.11
2022-10-15T08:07:37.685Z,14.13
2022-10-15T08:08:37.702Z,14.14
2022-10-15T08:09:37.724Z,14.16
2022-10-15T08:10:37.638Z,14.18
2022-10-15T08:11:37.642Z,14.20
2022-10-15T08:12:37.619Z,14.22
2022-10-15T08:13:37.610Z,14.25
2022-10-15T08:14:37.622Z,14.27
2022-10-15T08:15:37.604Z,14.29
2022-10-15T08:16:37.581Z,14.32
2022-10-15T08:17:37.581Z,14.35
2022-10-15T08:18:37.562Z,14.38
2022-10-15T08:19:37.563Z,14.42
2022-10-15T08:20:37.525Z,14.46
2022-10-15T08:21:37.526Z,14.50
2022-10-15T08:22:37.510Z,14.53
2022-10-15T08:23:37.507Z,14.56
2022-10-15T08:24:37.484Z,14.58
2022-10-15T08:25:37.481Z,14.60
2022-10-15T08:26:37.460Z,14.61
2022-10-15T08:27:37.441Z,14.64
2022-10-15T08:28:37.480Z,14.66
2022-10-15T08:29:37.431Z,14.68
2022-10-15T08:30:37.421Z,14.70
2022-10-15T08:31:37.402Z,14.72
2022-10-15T08:32:37.394Z,14.73
2022-10-15T08:33:37.374Z,14.75
2022-10-15T08:34:37.353Z,14.78
2022-10-15T08:35:37.373Z,14.81
2022-10-15T08:36:37.331Z,14.84
2022-10-15T08:37:37.331Z,14.87
2022-10-15T08:38:37.316Z,14.90
2022-10-15T08:39:37.311Z,14.92
2022-10-15T08:40:37.311Z,14.93
2022-10-15T08:41:37.289Z,14.94
2022-10-15T08:42:37.267Z,14.95
2022-10-15T08:43:37.266Z,14.95
2022-10-15T08:44:37.250Z,14.96
2022-10-15T08:45:37.253Z,14.96
2022-10-15T08:46:37.230Z,14.97
2022-10-15T08:47:37.223Z,14.99
2022-10-15T08:48:37.194Z,15.00
2022-10-15T08:49:37.183Z,15.01
2022-10-15T08:50:37.198Z,15.02
2022-10-15T08:51:37.165Z,15.03
2022-10-15T08:52:37.153Z,15.03
2022-10-15T08:53:37.143Z,15.03
2022-10-15T08:54:37.124Z,15.04
2022-10-15T08:55:37.144Z,15.05
2022-10-15T08:56:37.106Z,15.05
2022-10-15T08:57:37.096Z,15.06
2022-10-15T08:58:39.692Z,15.06
2022-10-15T08:59:37.066Z,15.07
2022-10-15T09:00:37.090Z,15.08
2022-10-15T09:01:37.058Z,15.09
2022-10-15T09:02:37.090Z,15.11
2022-10-15T09:03:37.017Z,15.15
2022-10-15T09:04:37.012Z,15.18
2022-10-15T09:05:37.015Z,15.21
2022-10-15T09:06:37.000Z,15.26
2022-10-15T09:07:36.977Z,15.31
2022-10-15T09:08:36.955Z,15.36
2022-10-15T09:09:36.959Z,15.42
2022-10-15T09:10:36.937Z,15.48
2022-10-15T09:11:36.946Z,15.52
2022-10-15T09:12:36.921Z,15.57
2022-10-15T09:14:36.887Z,15.64
2022-10-15T09:15:36.879Z,15.68
2022-10-15T09:16:36.865Z,15.72
2022-10-15T09:17:36.879Z,15.76
2022-10-15T09:18:36.856Z,15.80
2022-10-15T09:19:36.839Z,15.83
2022-10-15T09:20:36.809Z,15.85
2022-10-15T09:21:36.809Z,15.88
2022-10-15T09:22:36.858Z,15.91
2022-10-15T09:23:36.797Z,15.95
2022-10-15T09:24:36.767Z,15.98
2022-10-15T09:25:36.761Z,16.02
2022-10-15T09:26:36.758Z,16.06
2022-10-15T09:27:36.763Z,16.10
2022-10-15T09:28:36.788Z,16.12
2022-10-15T09:29:36.717Z,16.15
2022-10-15T09:30:36.698Z,16.17
2022-10-15T09:31:36.697Z,16.20
2022-10-15T09:32:36.696Z,16.22
2022-10-15T09:33:36.671Z,16.23
2022-10-15T09:34:36.663Z,16.24
2022-10-15T09:35:36.659Z,16.25
2022-10-15T09:36:36.652Z,16.26
2022-10-15T09:37:36.641Z,16.28
2022-10-15T09:38:36.621Z,16.30
2022-10-15T09:39:36.610Z,16.33
2022-10-15T09:40:36.589Z,16.38
2022-10-15T09:41:36.583Z,16.44
2022-10-15T09:42:36.580Z,16.48
2022-10-15T09:43:36.581Z,16.50
2022-10-15T09:44:36.542Z,16.51
2022-10-15T09:45:36.546Z,16.51
2022-10-15T09:46:36.527Z,16.52
2022-10-15T09:47:36.511Z,16.52
2022-10-15T09:48:36.512Z,16.54
2022-10-15T09:49:36.632Z,16.56
2022-10-15T09:50:36.475Z,16.57
2022-10-15T09:51:36.463Z,16.59
2022-10-15T09:52:36.455Z,16.60
2022-10-15T09:53:36.434Z,16.62
2022-10-15T09:54:36.441Z,16.64
2022-10-15T09:55:36.411Z,16.66
2022-10-15T09:56:36.407Z,16.68
2022-10-15T09:57:36.395Z,16.71
2022-10-15T09:58:36.388Z,16.74
2022-10-15T09:59:36.388Z,16.77
2022-10-15T10:00:36.364Z,16.80
2022-10-15T10:01:36.347Z,16.84
2022-10-15T10:02:36.416Z,16.88
2022-10-15T10:03:36.327Z,16.91
2022-10-15T10:04:36.334Z,16.94
2022-10-15T10:05:36.303Z,16.97
2022-10-15T10:06:36.294Z,17.00
2022-10-15T10:07:36.286Z,17.02
2022-10-15T10:08:36.306Z,17.05
2022-10-15T10:09:36.282Z,17.08
2022-10-15T10:10:36.250Z,17.11
2022-10-15T10:11:36.227Z,17.15
2022-10-15T10:12:36.218Z,17.19
2022-10-15T10:13:36.195Z,17.23
2022-10-15T10:14:36.217Z,17.27
2022-10-15T10:15:36.176Z,17.31
2022-10-15T10:16:36.171Z,17.37
2022-10-15T10:17:36.159Z,17.42
2022-10-15T10:18:36.148Z,17.48
2022-10-15T10:19:36.132Z,17.55
2022-10-15T10:20:36.148Z,17.63
2022-10-15T10:21:36.137Z,17.72
2022-10-15T10:22:36.101Z,17.80
2022-10-15T10:23:36.089Z,17.87
2022-10-15T10:24:36.080Z,17.92
2022-10-15T10:25:36.084Z,17.97
2022-10-15T10:26:36.048Z,18.03
2022-10-15T10:27:36.048Z,18.09
2022-10-15T10:28:39.372Z,18.15
2022-10-15T10:29:37.153Z,18.21
2022-10-15T10:30:36.040Z,18.25
2022-10-15T10:31:35.988Z,18.29
2022-10-15T10:32:35.985Z,18.32
2022-10-15T10:33:35.981Z,18.34
2022-10-15T10:34:35.962Z,18.36
2022-10-15T10:35:35.963Z,18.37
2022-10-15T10:36:37.351Z,18.38
2022-10-15T10:37:35.923Z,18.39
2022-10-15T10:38:35.914Z,18.39
2022-10-15T10:39:35.901Z,18.39
2022-10-15T10:40:35.919Z,18.40
2022-10-15T10:41:35.903Z,18.41
2022-10-15T10:42:35.871Z,18.43
2022-10-15T10:43:39.068Z,18.46
2022-10-15T10:44:35.851Z,18.49
2022-10-15T10:45:35.854Z,18.51
2022-10-15T10:46:35.826Z,18.53
2022-10-15T10:47:35.816Z,18.53
2022-10-15T10:48:35.800Z,18.54
2022-10-15T10:49:35.784Z,18.54
2022-10-15T10:50:35.783Z,18.54
2022-10-15T10:51:35.784Z,18.55
2022-10-15T10:52:35.766Z,18.55
2022-10-15T10:53:35.741Z,18.56
2022-10-15T10:54:35.796Z,18.57
2022-10-15T10:55:35.725Z,18.58
2022-10-15T10:56:35.749Z,18.58
2022-10-15T10:57:35.688Z,18.57
2022-10-15T10:58:35.680Z,18.55
2022-10-15T10:59:35.667Z,18.53
2022-10-15T11:00:35.747Z,18.51
2022-10-15T11:01:35.668Z,18.50
2022-10-15T11:02:35.632Z,18.51
2022-10-15T11:03:35.617Z,18.52
2022-10-15T11:04:35.612Z,18.53
2022-10-15T11:05:35.599Z,18.55
2022-10-15T11:06:35.602Z,18.56
2022-10-15T11:07:35.576Z,18.57
2022-10-15T11:08:35.580Z,18.57
2022-10-15T11:09:35.549Z,18.55
2022-10-15T11:10:35.550Z,18.52
2022-10-15T11:11:35.538Z,18.48
2022-10-15T11:12:35.526Z,18.44
2022-10-15T11:13:35.512Z,18.41
2022-10-15T11:14:35.494Z,18.39
2022-10-15T11:15:35.478Z,18.38
2022-10-15T11:16:35.497Z,18.38
2022-10-15T11:17:35.453Z,18.37
2022-10-15T11:18:35.452Z,18.36
2022-10-15T11:19:59.659Z,18.35
2022-10-15T11:20:53.003Z,18.33
2022-10-15T11:21:36.428Z,18.31
2022-10-15T11:22:35.403Z,18.29
2022-10-15T11:23:35.391Z,18.28
2022-10-15T11:24:48.351Z,18.27
2022-10-15T11:25:36.359Z,18.27
2022-10-15T11:26:41.625Z,18.27
2022-10-15T11:27:36.349Z,18.26
2022-10-15T11:28:35.374Z,18.24
2022-10-15T11:29:35.322Z,18.23
2022-10-15T11:30:35.312Z,18.23
2022-10-15T11:31:43.992Z,18.22
2022-10-15T11:32:54.368Z,18.22
2022-10-15T11:33:36.261Z,18.20
2022-10-15T11:34:35.255Z,18.20
2022-10-15T11:35:52.534Z,18.20
2022-10-15T11:36:36.267Z,18.18
2022-10-15T11:37:35.243Z,18.16
2022-10-15T11:38:35.213Z,18.15
2022-10-15T11:39:35.195Z,18.15
2022-10-15T11:40:35.193Z,18.15
2022-10-15T11:41:35.184Z,18.17
2022-10-15T11:42:35.175Z,18.20
2022-10-15T11:43:35.167Z,18.22
2022-10-15T11:44:35.136Z,18.24
2022-10-15T11:45:35.124Z,18.26
2022-10-15T11:46:35.127Z,18.28
2022-10-15T11:47:35.102Z,18.29
2022-10-15T11:48:35.098Z,18.30
2022-10-15T11:50:35.069Z,18.31
2022-10-15T11:51:35.058Z,18.31
2022-10-15T11:52:35.056Z,18.31
2022-10-15T11:53:35.047Z,18.31
2022-10-15T11:54:35.029Z,18.33
2022-10-15T11:55:35.012Z,18.35
2022-10-15T11:56:38.038Z,18.37
2022-10-15T11:57:34.996Z,18.38
2022-10-15T11:58:34.998Z,18.38
2022-10-15T11:59:34.961Z,18.37
2022-10-15T12:00:34.950Z,18.37
2022-10-15T12:01:34.939Z,18.37
2022-10-15T12:02:34.930Z,18.37
2022-10-15T12:03:34.919Z,18.38
2022-10-15T12:04:34.962Z,18.38
2022-10-15T12:05:34.902Z,18.39
2022-10-15T12:06:34.891Z,18.39
2022-10-15T12:07:34.879Z,18.39
2022-10-15T12:08:34.857Z,18.39
2022-10-15T12:09:34.866Z,18.39
2022-10-15T12:10:34.837Z,18.39
2022-10-15T12:11:34.821Z,18.40
2022-10-15T12:12:34.824Z,18.41
2022-10-15T12:13:34.804Z,18.43
2022-10-15T12:14:34.810Z,18.46
2022-10-15T12:15:34.785Z,18.48
2022-10-15T12:16:34.773Z,18.51
2022-10-15T12:17:34.750Z,18.53
2022-10-15T12:18:34.743Z,18.56
2022-10-15T12:19:34.734Z,18.59
2022-10-15T12:20:34.741Z,18.62
2022-10-15T12:21:34.699Z,18.66
2022-10-15T12:22:34.958Z,18.69
2022-10-15T12:23:34.670Z,18.72
2022-10-15T12:24:34.672Z,18.75
2022-10-15T12:25:34.679Z,18.78
2022-10-15T12:26:34.654Z,18.81
2022-10-15T12:27:34.675Z,18.84
2022-10-15T12:28:34.674Z,18.88
2022-10-15T12:29:34.630Z,18.91
2022-10-15T12:30:34.643Z,18.95
2022-10-15T12:31:38.387Z,19.00
2022-10-15T12:32:34.586Z,19.05
2022-10-15T12:33:34.575Z,19.09
2022-10-15T12:34:34.557Z,19.12
2022-10-15T12:35:34.557Z,19.14
2022-10-15T12:36:34.535Z,19.15
2022-10-15T12:37:34.528Z,19.16
2022-10-15T12:38:34.517Z,19.17
2022-10-15T12:39:51.275Z,19.17
2022-10-15T12:40:35.487Z,19.16
2022-10-15T12:41:34.468Z,19.15
2022-10-15T12:42:34.467Z,19.15
2022-10-15T12:43:34.437Z,19.15
2022-10-15T12:44:34.445Z,19.14
2022-10-15T12:45:37.365Z,19.14
2022-10-15T12:46:35.419Z,19.14
2022-10-15T12:47:34.406Z,19.14
2022-10-15T12:48:34.389Z,19.15
2022-10-15T12:49:34.379Z,19.16
2022-10-15T12:50:34.371Z,19.17
2022-10-15T12:51:34.360Z,19.18
2022-10-15T12:52:34.347Z,19.19
2022-10-15T12:53:34.457Z,19.19
2022-10-15T12:54:34.323Z,19.20
2022-10-15T12:55:34.330Z,19.21